createdAt,value
2024-01-14T00:00:19.473Z,5.17
2024-01-14T00:02:45.957Z,5.60
2024-01-14T00:05:12.556Z,5.57
2024-01-14T00:07:39.145Z,5.30
2024-01-14T00:10:06.632Z,5.60
2024-01-14T00:12:33.274Z,5.67
2024-01-14T00:14:59.856Z,4.77
2024-01-14T00:17:26.983Z,5.37
2024-01-14T00:19:54.293Z,5.33
2024-01-14T00:22:20.764Z,4.90
2024-01-14T00:24:47.171Z,4.30
2024-01-14T00:27:14.213Z,4.37
2024-01-14T00:29:40.901Z,5.30
2024-01-14T00:32:07.910Z,4.77
2024-01-14T00:34:34.364Z,4.73
2024-01-14T00:37:01.645Z,5.87
2024-01-14T00:39:28.074Z,3.80
2024-01-14T00:41:54.457Z,4.27
2024-01-14T00:44:22.218Z,4.33
2024-01-14T00:46:49.684Z,5.27
2024-01-14T00:49:18.233Z,4.80
2024-01-14T00:51:44.744Z,4.80
2024-01-14T00:54:11.363Z,3.63
2024-01-14T00:56:37.771Z,3.87
2024-01-14T00:59:04.126Z,3.87
2024-01-14T01:01:31.398Z,4.30
2024-01-14T01:03:57.900Z,5.47
2024-01-14T01:06:24.433Z,3.50
2024-01-14T01:08:50.802Z,2.87
2024-01-14T01:11:18.026Z,3.00
2024-01-14T01:13:44.361Z,4.20
2024-01-14T01:16:10.755Z,3.70
2024-01-14T01:18:37.222Z,3.27
2024-01-14T01:21:04.038Z,3.90
2024-01-14T01:23:30.506Z,4.17
2024-01-14T01:25:56.914Z,4.80
2024-01-14T01:28:23.321Z,4.07
2024-01-14T01:30:49.837Z,4.03
2024-01-14T01:33:16.553Z,4.50
2024-01-14T01:35:43.127Z,4.00
2024-01-14T01:38:09.695Z,5.27
2024-01-14T01:40:36.038Z,4.73
2024-01-14T01:43:02.398Z,4.37
2024-01-14T01:45:28.834Z,4.33
2024-01-14T01:47:55.735Z,4.30
2024-01-14T01:50:22.429Z,4.07
2024-01-14T01:52:49.273Z,3.37
2024-01-14T01:55:16.062Z,4.07
2024-01-14T01:57:42.700Z,4.40
2024-01-14T02:00:10.678Z,4.30
2024-01-14T02:02:41.263Z,5.20
2024-01-14T02:05:08.421Z,4.47
2024-01-14T02:07:34.776Z,3.73
2024-01-14T02:10:01.467Z,3.93
2024-01-14T02:12:27.953Z,4.47
2024-01-14T02:14:54.431Z,4.03
2024-01-14T02:17:20.830Z,3.83
2024-01-14T02:19:47.524Z,4.10
2024-01-14T02:22:23.894Z,4.40
2024-01-14T02:24:51.497Z,3.47
2024-01-14T02:27:18.005Z,3.50
2024-01-14T02:29:45.372Z,3.60
2024-01-14T02:32:11.902Z,4.43
2024-01-14T02:34:38.500Z,4.50
2024-01-14T02:37:04.988Z,3.70
2024-01-14T02:39:31.542Z,3.83
2024-01-14T02:41:58.011Z,3.40
2024-01-14T02:44:24.417Z,4.30
2024-01-14T02:46:51.007Z,3.80
2024-01-14T02:49:17.603Z,4.40
2024-01-14T02:51:46.721Z,4.57
2024-01-14T02:54:13.265Z,4.07
2024-01-14T02:56:39.723Z,3.70
2024-01-14T02:59:06.135Z,4.23
2024-01-14T03:01:32.545Z,3.87
2024-01-14T03:03:59.051Z,3.63
2024-01-14T03:06:25.540Z,3.87
2024-01-14T03:08:52.387Z,4.13
2024-01-14T03:11:18.895Z,3.43
2024-01-14T03:13:45.342Z,3.57
2024-01-14T03:16:11.720Z,4.40
2024-01-14T03:18:38.273Z,3.60
2024-01-14T03:21:05.026Z,4.57
2024-01-14T03:23:31.424Z,3.23
2024-01-14T03:25:57.792Z,4.30
2024-01-14T03:28:24.156Z,4.00
2024-01-14T03:30:50.735Z,4.27
2024-01-14T03:33:17.286Z,3.60
2024-01-14T03:35:43.733Z,3.80
2024-01-14T03:38:10.093Z,3.90
2024-01-14T03:40:36.452Z,3.90
2024-01-14T03:43:02.894Z,4.23
2024-01-14T03:45:29.311Z,4.50
2024-01-14T03:47:55.830Z,3.73
2024-01-14T03:50:22.363Z,4.17
2024-01-14T03:52:48.827Z,4.27
2024-01-14T03:55:15.269Z,4.13
2024-01-14T03:57:41.717Z,3.97
2024-01-14T04:00:09.811Z,4.37
2024-01-14T04:02:36.211Z,3.37
2024-01-14T04:05:02.702Z,4.40
2024-01-14T04:07:29.035Z,4.60
2024-01-14T04:09:55.372Z,4.63
2024-01-14T04:12:21.860Z,4.63
2024-01-14T04:14:48.240Z,4.23
2024-01-14T04:17:14.574Z,4.97
2024-01-14T04:19:41.150Z,4.33
2024-01-14T04:22:07.520Z,4.27
2024-01-14T04:24:34.040Z,3.63
2024-01-14T04:27:00.483Z,5.00
2024-01-14T04:29:27.037Z,4.97
2024-01-14T04:31:53.443Z,4.73
2024-01-14T04:34:19.934Z,3.90
2024-01-14T04:36:46.404Z,4.07
2024-01-14T04:39:12.859Z,2.90
2024-01-14T04:41:39.814Z,4.43
2024-01-14T04:44:06.327Z,4.40
2024-01-14T04:46:32.932Z,3.80
2024-01-14T04:48:59.681Z,3.80
2024-01-14T04:51:26.304Z,2.80
2024-01-14T04:53:52.680Z,3.17
2024-01-14T04:56:19.140Z,2.77
2024-01-14T04:58:45.689Z,3.83
2024-01-14T05:01:12.137Z,3.90
2024-01-14T05:03:39.505Z,3.97
2024-01-14T05:06:06.520Z,3.60
2024-01-14T05:08:33.062Z,4.17
2024-01-14T05:10:59.429Z,3.43
2024-01-14T05:13:25.953Z,4.40
2024-01-14T05:15:52.384Z,3.67
2024-01-14T05:18:19.029Z,4.40
2024-01-14T05:20:45.602Z,3.03
2024-01-14T05:23:12.064Z,3.17
2024-01-14T05:25:38.440Z,3.40
2024-01-14T05:28:04.864Z,4.53
2024-01-14T05:30:31.444Z,3.23
2024-01-14T05:32:57.929Z,3.37
2024-01-14T05:35:24.384Z,3.50
2024-01-14T05:37:50.758Z,3.03
2024-01-14T05:40:17.366Z,3.50
2024-01-14T05:42:44.124Z,3.90
2024-01-14T05:45:11.680Z,3.90
2024-01-14T05:47:40.546Z,3.80
2024-01-14T05:50:08.665Z,4.30
2024-01-14T05:52:35.182Z,4.43
2024-01-14T05:55:01.574Z,4.50
2024-01-14T05:57:28.054Z,3.43
2024-01-14T05:59:54.474Z,3.80
2024-01-14T06:02:20.893Z,3.73
2024-01-14T06:04:47.318Z,4.47
2024-01-14T06:07:13.925Z,3.90
2024-01-14T06:09:40.390Z,4.23
2024-01-14T06:12:07.368Z,2.77
2024-01-14T06:14:33.801Z,3.70
2024-01-14T06:17:00.215Z,3.70
2024-01-14T06:19:26.698Z,4.27
2024-01-14T06:21:53.139Z,3.87
2024-01-14T06:24:19.644Z,3.37
2024-01-14T06:26:46.147Z,3.53
2024-01-14T06:29:12.556Z,3.63
2024-01-14T06:31:39.636Z,3.13
2024-01-14T06:34:07.375Z,4.17
2024-01-14T06:36:33.942Z,3.40
2024-01-14T06:39:00.416Z,4.87
2024-01-14T06:41:26.880Z,3.67
2024-01-14T06:43:53.397Z,3.70
2024-01-14T06:46:19.846Z,3.23
2024-01-14T06:48:46.462Z,3.27
2024-01-14T06:51:12.857Z,3.77
2024-01-14T06:53:39.310Z,2.80
2024-01-14T06:56:06.105Z,3.30
2024-01-14T06:58:32.525Z,4.10
2024-01-14T07:00:59.177Z,3.23
2024-01-14T07:03:25.695Z,3.60
2024-01-14T07:05:52.481Z,2.90
2024-01-14T07:08:19.158Z,4.37
2024-01-14T07:10:45.563Z,4.27
2024-01-14T07:13:11.919Z,3.90
2024-01-14T07:15:39.631Z,4.07
2024-01-14T07:18:06.557Z,3.73
2024-01-14T07:20:33.185Z,3.40
2024-01-14T07:23:39.934Z,4.40
2024-01-14T07:25:45.964Z,3.90
2024-01-14T07:28:12.322Z,4.57
2024-01-14T07:30:38.810Z,4.37
2024-01-14T07:33:05.392Z,4.37
2024-01-14T07:35:31.894Z,4.77
2024-01-14T07:37:58.250Z,4.57
2024-01-14T07:40:24.580Z,4.40
2024-01-14T07:42:50.971Z,4.57
2024-01-14T07:45:17.400Z,4.20
2024-01-14T07:47:43.881Z,4.53
2024-01-14T07:50:10.913Z,4.17
2024-01-14T07:52:37.342Z,5.20
2024-01-14T07:55:03.815Z,4.67
2024-01-14T07:57:30.206Z,3.97
2024-01-14T07:59:56.684Z,4.60
2024-01-14T08:02:23.087Z,4.53
2024-01-14T08:04:49.511Z,5.27
2024-01-14T08:07:16.113Z,5.33
2024-01-14T08:09:43.233Z,4.90
2024-01-14T08:12:09.739Z,4.53
2024-01-14T08:14:36.144Z,4.93
2024-01-14T08:17:02.478Z,5.40
2024-01-14T08:19:28.912Z,5.47
2024-01-14T08:21:55.885Z,4.90
2024-01-14T08:24:22.304Z,5.60
2024-01-14T08:26:48.663Z,4.50
2024-01-14T08:29:24.679Z,5.63
2024-01-14T08:31:53.097Z,5.07
2024-01-14T08:34:19.611Z,4.80
2024-01-14T08:36:46.091Z,4.70
2024-01-14T08:39:12.597Z,5.23
2024-01-14T08:41:38.936Z,4.60
2024-01-14T08:44:07.843Z,5.20
2024-01-14T08:46:36.068Z,4.80
2024-01-14T08:49:02.577Z,4.97
2024-01-14T08:51:29.049Z,5.13
2024-01-14T08:54:01.849Z,4.83
2024-01-14T08:56:29.958Z,3.97
2024-01-14T08:58:58.040Z,3.57
2024-01-14T09:01:25.543Z,4.97
2024-01-14T09:03:52.188Z,5.00
2024-01-14T09:06:18.839Z,4.80
2024-01-14T09:08:45.341Z,4.33
2024-01-14T09:11:11.717Z,5.13
2024-01-14T09:13:38.191Z,4.90
2024-01-14T09:16:04.841Z,4.47
2024-01-14T09:18:31.714Z,3.63
2024-01-14T09:20:58.335Z,4.13
2024-01-14T09:23:24.732Z,4.43
2024-01-14T09:25:51.075Z,4.53
2024-01-14T09:28:17.849Z,4.13
2024-01-14T09:30:44.233Z,4.07
2024-01-14T09:33:10.771Z,4.63
2024-01-14T09:35:37.232Z,5.00
2024-01-14T09:38:03.700Z,4.23
2024-01-14T09:40:30.172Z,3.97
2024-01-14T09:43:00.615Z,3.97
2024-01-14T09:45:31.454Z,3.90
2024-01-14T09:48:03.710Z,3.83
2024-01-14T09:50:32.228Z,4.17
2024-01-14T09:52:59.814Z,3.43
2024-01-14T09:55:26.808Z,4.70
2024-01-14T09:57:53.890Z,3.97
2024-01-14T10:00:23.842Z,4.17
2024-01-14T10:02:50.424Z,3.90
2024-01-14T10:05:17.401Z,3.80
2024-01-14T10:07:47.300Z,4.20
2024-01-14T10:10:13.746Z,3.50
2024-01-14T10:12:40.307Z,3.77
2024-01-14T10:15:07.195Z,3.60
2024-01-14T10:17:34.399Z,3.53
2024-01-14T10:20:00.946Z,4.73
2024-01-14T10:22:31.221Z,3.97
2024-01-14T10:24:58.074Z,3.63
2024-01-14T10:27:35.202Z,4.97
2024-01-14T10:30:12.807Z,2.97
2024-01-14T10:33:15.862Z,3.77
2024-01-14T10:35:29.249Z,3.70
2024-01-14T10:37:56.473Z,4.53
2024-01-14T10:40:23.230Z,4.37
2024-01-14T10:42:49.655Z,4.70
2024-01-14T10:45:16.145Z,3.73
2024-01-14T10:47:47.812Z,4.47
2024-01-14T10:50:18.981Z,3.67
2024-01-14T10:52:53.323Z,3.87
2024-01-14T10:55:35.810Z,3.87
2024-01-14T10:58:04.696Z,3.90
2024-01-14T11:00:37.376Z,4.20
2024-01-14T11:03:08.202Z,4.03
2024-01-14T11:05:35.896Z,3.73
2024-01-14T11:08:04.724Z,3.60
2024-01-14T11:10:33.024Z,3.93
2024-01-14T11:13:17.054Z,4.07
2024-01-14T11:16:10.846Z,4.83
2024-01-14T11:18:46.783Z,4.50
2024-01-14T11:22:09.963Z,4.10
2024-01-14T11:24:43.684Z,4.37
2024-01-14T11:27:16.431Z,5.27
2024-01-14T11:29:49.134Z,4.00
2024-01-14T11:32:21.998Z,4.70
2024-01-14T11:34:49.174Z,5.03
2024-01-14T11:37:33.684Z,5.30
2024-01-14T11:40:10.355Z,4.40
2024-01-14T11:42:46.968Z,5.13
2024-01-14T11:45:15.238Z,5.00
2024-01-14T11:47:47.374Z,5.00
2024-01-14T11:50:15.546Z,5.07
2024-01-14T11:52:46.647Z,5.07
2024-01-14T11:55:15.483Z,4.23
2024-01-14T11:57:42.550Z,5.03
2024-01-14T12:00:09.366Z,5.13
2024-01-14T12:02:35.809Z,4.90
2024-01-14T12:05:18.860Z,5.20
2024-01-14T12:07:45.761Z,5.43
2024-01-14T12:10:16.520Z,5.70
2024-01-14T12:12:44.130Z,6.07
2024-01-14T12:15:11.041Z,5.97
2024-01-14T12:17:37.664Z,5.13
2024-01-14T12:20:09.252Z,5.13
2024-01-14T12:22:36.726Z,4.53
2024-01-14T12:25:04.406Z,5.57
2024-01-14T12:27:31.819Z,5.97
2024-01-14T12:29:58.383Z,5.30
2024-01-14T12:32:25.028Z,4.80
2024-01-14T12:34:51.787Z,5.33
2024-01-14T12:37:18.506Z,4.90
2024-01-14T12:39:45.079Z,4.83
2024-01-14T12:42:13.028Z,5.07
2024-01-14T12:44:43.983Z,5.17
2024-01-14T12:47:10.441Z,5.97
2024-01-14T12:49:37.827Z,4.90
2024-01-14T12:52:06.904Z,6.03
2024-01-14T12:54:33.840Z,5.27
2024-01-14T12:57:04.706Z,5.70
2024-01-14T12:59:33.957Z,6.17
2024-01-14T13:02:03.524Z,6.67
2024-01-14T13:04:30.182Z,6.40
2024-01-14T13:06:59.073Z,6.27
2024-01-14T13:09:26.369Z,6.40
2024-01-14T13:11:52.935Z,7.37
2024-01-14T13:14:19.391Z,7.37
2024-01-14T13:16:53.414Z,5.83
2024-01-14T13:19:21.720Z,6.60
2024-01-14T13:21:48.271Z,5.97
2024-01-14T13:24:15.063Z,6.97
2024-01-14T13:26:43.259Z,7.17
2024-01-14T13:29:11.380Z,7.60
2024-01-14T13:31:39.212Z,7.17
2024-01-14T13:34:07.606Z,7.10
2024-01-14T13:36:34.437Z,7.13
2024-01-14T13:39:02.617Z,6.60
2024-01-14T13:41:29.212Z,7.17
2024-01-14T13:44:08.449Z,7.73
2024-01-14T13:46:42.086Z,6.90
2024-01-14T13:49:08.572Z,6.67
2024-01-14T13:51:35.222Z,5.90
2024-01-14T13:54:11.582Z,7.50
2024-01-14T13:56:41.242Z,6.87
2024-01-14T13:59:09.792Z,6.80
2024-01-14T14:01:38.136Z,6.87
2024-01-14T14:04:05.673Z,6.87
2024-01-14T14:06:38.246Z,5.87
2024-01-14T14:09:07.452Z,5.97
2024-01-14T14:11:34.388Z,5.70
2024-01-14T14:14:01.454Z,6.57
2024-01-14T14:16:38.254Z,6.00
2024-01-14T14:19:07.745Z,5.77
2024-01-14T14:21:45.442Z,6.43
2024-01-14T14:24:21.175Z,5.53
2024-01-14T14:26:47.717Z,5.87
2024-01-14T14:29:14.055Z,6.00
2024-01-14T14:31:48.148Z,5.80
2024-01-14T14:34:16.735Z,5.83
2024-01-14T14:36:44.154Z,6.53
2024-01-14T14:39:11.126Z,6.00
2024-01-14T14:41:37.784Z,6.07
2024-01-14T14:44:05.400Z,6.90
2024-01-14T14:46:32.387Z,6.10
2024-01-14T14:49:00.163Z,6.07
2024-01-14T14:51:33.767Z,4.93
2024-01-14T14:54:05.783Z,6.20
2024-01-14T14:56:32.265Z,6.43
2024-01-14T14:58:58.987Z,5.23
2024-01-14T15:01:33.019Z,5.47
2024-01-14T15:04:04.950Z,5.67
2024-01-14T15:06:31.394Z,5.93
2024-01-14T15:08:57.830Z,5.47
2024-01-14T15:11:30.899Z,5.57
2024-01-14T15:13:58.415Z,5.60
2024-01-14T15:16:24.870Z,5.17
2024-01-14T15:18:51.355Z,5.70
2024-01-14T15:21:21.130Z,4.60
2024-01-14T15:23:48.262Z,5.13
2024-01-14T15:26:14.679Z,4.50
2024-01-14T15:28:41.099Z,4.67
2024-01-14T15:31:09.067Z,6.10
2024-01-14T15:33:36.391Z,5.23
2024-01-14T15:36:04.622Z,5.63
2024-01-14T15:38:32.865Z,5.50
2024-01-14T15:41:05.958Z,5.80
2024-01-14T15:43:34.870Z,6.97
2024-01-14T15:46:01.633Z,6.33
2024-01-14T15:48:29.381Z,6.13
2024-01-14T15:51:00.751Z,5.83
2024-01-14T15:53:31.168Z,5.37
2024-01-14T15:55:57.636Z,6.83
2024-01-14T15:58:24.000Z,6.37
2024-01-14T16:01:02.879Z,5.60
2024-01-14T16:03:36.334Z,5.87
2024-01-14T16:06:04.772Z,5.57
2024-01-14T16:08:31.639Z,6.23
2024-01-14T16:11:04.944Z,6.30
2024-01-14T16:13:33.745Z,6.60
2024-01-14T16:16:00.519Z,6.30
2024-01-14T16:18:27.039Z,6.50
2024-01-14T16:21:02.703Z,6.33
2024-01-14T16:23:32.951Z,5.60
2024-01-14T16:25:59.395Z,6.37
2024-01-14T16:28:25.784Z,5.57
2024-01-14T16:31:00.647Z,7.20
2024-01-14T16:33:35.395Z,5.10
2024-01-14T16:36:01.904Z,5.03
2024-01-14T16:38:28.376Z,7.23
2024-01-14T16:41:03.020Z,5.10
2024-01-14T16:43:31.591Z,5.17
2024-01-14T16:45:58.208Z,5.27
2024-01-14T16:48:24.645Z,6.00
2024-01-14T16:51:01.966Z,4.60
2024-01-14T16:53:34.655Z,6.00
2024-01-14T16:56:01.381Z,5.37
2024-01-14T16:58:27.939Z,5.00
2024-01-14T17:01:06.948Z,7.67
2024-01-14T17:03:40.178Z,4.80
2024-01-14T17:06:08.529Z,5.50
2024-01-14T17:08:36.107Z,5.20
2024-01-14T17:11:06.881Z,4.90
2024-01-14T17:13:33.377Z,5.33
2024-01-14T17:16:08.621Z,5.07
2024-01-14T17:18:37.942Z,4.93
2024-01-14T17:21:04.891Z,5.33
2024-01-14T17:23:31.322Z,5.03
2024-01-14T17:26:07.270Z,6.40
2024-01-14T17:28:38.387Z,4.67
2024-01-14T17:31:05.202Z,9.47
2024-01-14T17:33:32.289Z,4.23
2024-01-14T17:36:04.968Z,4.23
2024-01-14T17:38:33.715Z,5.07
2024-01-14T17:41:00.762Z,4.27
2024-01-14T17:43:29.302Z,4.43
2024-01-14T17:46:03.762Z,4.30
2024-01-14T17:48:35.507Z,4.47
2024-01-14T17:51:03.960Z,5.10
2024-01-14T17:53:30.966Z,5.50
2024-01-14T17:55:57.380Z,4.77
2024-01-14T17:58:23.829Z,5.13
2024-01-14T18:00:50.624Z,5.83
2024-01-14T18:03:18.922Z,5.17
2024-01-14T18:05:45.474Z,4.77
2024-01-14T18:08:12.319Z,5.37
2024-01-14T18:10:40.088Z,5.97
2024-01-14T18:13:12.751Z,5.63
2024-01-14T18:15:42.032Z,5.70
2024-01-14T18:18:09.353Z,5.10
2024-01-14T18:20:35.938Z,5.63
2024-01-14T18:23:12.052Z,5.90
2024-01-14T18:25:40.930Z,5.83
2024-01-14T18:28:07.509Z,6.67
2024-01-14T18:30:35.319Z,5.50
2024-01-14T18:33:09.707Z,7.90
2024-01-14T18:35:39.741Z,5.17
2024-01-14T18:38:07.445Z,5.57
2024-01-14T18:40:34.258Z,7.77
2024-01-14T18:43:00.841Z,6.03
2024-01-14T18:45:29.710Z,6.90
2024-01-14T18:47:56.550Z,7.27
2024-01-14T18:50:22.950Z,5.47
2024-01-14T18:52:49.448Z,5.53
2024-01-14T18:55:16.958Z,6.70
2024-01-14T18:57:43.510Z,7.37
2024-01-14T19:00:10.381Z,6.00
2024-01-14T19:02:36.840Z,5.77
2024-01-14T19:05:04.485Z,7.70
2024-01-14T19:07:31.025Z,6.50
2024-01-14T19:09:57.560Z,5.87
2024-01-14T19:12:24.011Z,7.03
2024-01-14T19:14:51.372Z,5.80
2024-01-14T19:17:17.816Z,6.50
2024-01-14T19:19:45.082Z,5.47
2024-01-14T19:22:12.297Z,5.53
2024-01-14T19:24:42.441Z,6.03
2024-01-14T19:27:09.983Z,5.57
2024-01-14T19:29:36.469Z,6.13
2024-01-14T19:32:03.657Z,5.63
2024-01-14T19:34:30.162Z,5.10
2024-01-14T19:36:57.428Z,6.43
2024-01-14T19:39:25.661Z,9.33
2024-01-14T19:41:53.310Z,5.63
2024-01-14T19:44:21.391Z,4.47
2024-01-14T19:46:47.762Z,5.00
2024-01-14T19:49:16.009Z,4.47
2024-01-14T19:51:43.328Z,8.93
2024-01-14T19:54:10.324Z,4.00
2024-01-14T19:56:40.067Z,5.07
2024-01-14T19:59:09.066Z,3.97
2024-01-14T20:01:35.425Z,3.73
2024-01-14T20:04:01.962Z,3.83
2024-01-14T20:06:28.344Z,4.20
2024-01-14T20:08:54.797Z,4.47
2024-01-14T20:11:21.157Z,3.77
2024-01-14T20:13:47.571Z,7.80
2024-01-14T20:16:15.736Z,3.30
2024-01-14T20:18:43.700Z,7.60
2024-01-14T20:21:10.127Z,6.83
2024-01-14T20:23:36.561Z,7.60
2024-01-14T20:26:03.394Z,3.73
2024-01-14T20:28:29.801Z,3.37
2024-01-14T20:30:56.429Z,2.73
2024-01-14T20:33:26.589Z,2.17
2024-01-14T20:35:53.221Z,3.70
2024-01-14T20:38:19.543Z,2.93
2024-01-14T20:40:45.904Z,3.50
2024-01-14T20:43:15.026Z,2.93
2024-01-14T20:45:42.661Z,2.27
2024-01-14T20:48:09.303Z,2.60
2024-01-14T20:50:35.845Z,6.50
2024-01-14T20:53:02.198Z,2.20
2024-01-14T20:55:28.708Z,2.37
2024-01-14T20:57:55.226Z,2.57
2024-01-14T21:00:21.785Z,2.20
2024-01-14T21:02:48.391Z,1.30
2024-01-14T21:05:14.943Z,2.10
2024-01-14T21:07:41.304Z,2.57
2024-01-14T21:10:07.920Z,5.90
2024-01-14T21:12:34.353Z,6.13
2024-01-14T21:15:03.556Z,5.73
2024-01-14T21:17:30.401Z,5.20
2024-01-14T21:19:56.801Z,1.83
2024-01-14T21:22:23.201Z,5.53
2024-01-14T21:24:50.635Z,5.83
2024-01-14T21:27:17.409Z,2.23
2024-01-14T21:29:43.871Z,2.40
2024-01-14T21:32:11.549Z,1.93
2024-01-14T21:34:38.482Z,2.50
2024-01-14T21:37:04.890Z,2.30
2024-01-14T21:39:31.412Z,1.40
2024-01-14T21:41:57.788Z,2.20
2024-01-14T21:44:24.154Z,2.90
2024-01-14T21:46:50.475Z,2.13
2024-01-14T21:49:17.199Z,3.00
2024-01-14T21:51:43.740Z,2.07
2024-01-14T21:54:10.179Z,5.87
2024-01-14T21:56:37.080Z,5.90
2024-01-14T21:59:03.409Z,2.67
2024-01-14T22:01:29.851Z,3.00
2024-01-14T22:03:56.301Z,2.60
2024-01-14T22:06:22.836Z,5.87
2024-01-14T22:08:49.243Z,6.13
2024-01-14T22:11:15.559Z,6.13
2024-01-14T22:13:42.718Z,6.50
2024-01-14T22:16:09.051Z,6.00
2024-01-14T22:18:35.543Z,6.97
2024-01-14T22:21:04.250Z,3.57
2024-01-14T22:23:30.756Z,3.10
2024-01-14T22:25:58.346Z,3.10
2024-01-14T22:28:24.953Z,2.43
2024-01-14T22:30:51.949Z,6.33
2024-01-14T22:33:18.490Z,7.00
2024-01-14T22:35:44.990Z,3.10
2024-01-14T22:38:13.116Z,3.27
2024-01-14T22:40:39.654Z,3.07
2024-01-14T22:43:05.986Z,3.60
2024-01-14T22:45:33.333Z,3.77
2024-01-14T22:47:59.841Z,3.23
2024-01-14T22:50:26.265Z,7.33
2024-01-14T22:52:52.625Z,4.00
2024-01-14T22:55:19.057Z,2.50
2024-01-14T22:57:45.428Z,3.00
2024-01-14T23:00:20.723Z,6.73
2024-01-14T23:02:47.102Z,3.20
2024-01-14T23:05:13.554Z,6.23
2024-01-14T23:07:39.978Z,3.03
2024-01-14T23:10:07.423Z,3.73
2024-01-14T23:12:33.796Z,2.77
2024-01-14T23:15:00.262Z,3.40
2024-01-14T23:17:27.046Z,3.27
2024-01-14T23:19:56.567Z,2.90
2024-01-14T23:22:23.065Z,2.67
2024-01-14T23:24:49.807Z,3.07
2024-01-14T23:27:16.227Z,3.17
2024-01-14T23:29:42.615Z,2.53
2024-01-14T23:32:09.012Z,7.17
2024-01-14T23:34:35.585Z,6.67
2024-01-14T23:37:02.101Z,7.00
2024-01-14T23:39:28.532Z,2.50
2024-01-14T23:41:54.886Z,2.77
2024-01-14T23:44:21.263Z,2.67
2024-01-14T23:46:47.640Z,2.57
2024-01-14T23:49:14.130Z,2.37
2024-01-14T23:51:40.665Z,2.93
2024-01-14T23:54:08.084Z,2.63
2024-01-14T23:56:37.829Z,2.47
2024-01-14T23:59:04.449Z,3.13
